Accueil
METAR-TAF:

METAR-TAF

Aéroports :

Albion Municipal Airport

Albion, Nebraska, États-Unis

latitude: 41-43-42N, longitude: 098-03-20W, altitude: 551 m

Observation

Le bulletin a été fait il y a 45 minutes, à 19:35 UTC
Vent 5 kt de sud/sud-est
Température 26°C
Humidité 70%
Pression 1021 hPa
Visibilité: 16.1 km
Nuages épars à une hauteur de 2900 ft
Nuages fragmentés à une hauteur de 3700 ft

METAR: KBVN 211935Z AUTO 16005KT 10SM SCT029 BKN037 26/20 A3016 RMK AO2 T02560197

Heure: 15:20 (20:20 UTC)


TAF: absent

Observations et prévisions météorologiques de plus de 4000 aéroports (messages METAR et TAF).

Les stations disponibles sont représentées par des disques jaunes et rouges sur la carte.

Passer la souris dessus pour voir le nom de la station.

Cliquer dessus pour voir les observations et prévisions météorologiques.

Pour changer de carte: cliquez sur les boutons verts avec une croix noire pour zoomer, sur le bouton vert avec un tiret pour effectuer un zoom arrière, ou sur les flèches vertes pour les cartes adjacentes.


METAR-TAF: